sensor_id;sensor_type;location;lat;lon;timestamp;temperature;humidity
21216;DHT22;10765;50.954;5.322;2023-04-25T00:01:58;8.00;71.50
21216;DHT22;10765;50.954;5.322;2023-04-25T00:04:25;8.00;1.00
21216;DHT22;10765;50.954;5.322;2023-04-25T00:06:53;8.00;1.00
21216;DHT22;10765;50.954;5.322;2023-04-25T00:09:21;8.10;8.90
21216;DHT22;10765;50.954;5.322;2023-04-25T00:11:48;8.10;1.00
21216;DHT22;10765;50.954;5.322;2023-04-25T00:14:15;8.10;1.00
21216;DHT22;10765;50.954;5.322;2023-04-25T00:16:42;8.00;1.00
21216;DHT22;10765;50.954;5.322;2023-04-25T00:19:09;7.90;99.90
21216;DHT22;10765;50.954;5.322;2023-04-25T00:21:37;8.00;99.90
21216;DHT22;10765;50.954;5.322;2023-04-25T00:24:06;8.00;99.90
21216;DHT22;10765;50.954;5.322;2023-04-25T00:26:35;7.90;99.90
21216;DHT22;10765;50.954;5.322;2023-04-25T00:29:02;7.90;99.90
21216;DHT22;10765;50.954;5.322;2023-04-25T00:31:29;7.80;99.90
21216;DHT22;10765;50.954;5.322;2023-04-25T00:33:56;7.80;1.00
21216;DHT22;10765;50.954;5.322;2023-04-25T00:36:23;7.80;1.00
21216;DHT22;10765;50.954;5.322;2023-04-25T00:38:50;7.80;99.90
21216;DHT22;10765;50.954;5.322;2023-04-25T00:41:17;7.80;99.90
21216;DHT22;10765;50.954;5.322;2023-04-25T00:43:48;7.90;1.00
21216;DHT22;10765;50.954;5.322;2023-04-25T00:46:15;7.90;99.90
21216;DHT22;10765;50.954;5.322;2023-04-25T00:48:42;7.90;1.00
21216;DHT22;10765;50.954;5.322;2023-04-25T00:51:12;8.10;99.90
21216;DHT22;10765;50.954;5.322;2023-04-25T00:53:40;8.10;99.90
21216;DHT22;10765;50.954;5.322;2023-04-25T00:56:07;8.00;99.90
21216;DHT22;10765;50.954;5.322;2023-04-25T00:58:35;7.90;99.90
21216;DHT22;10765;50.954;5.322;2023-04-25T01:01:04;7.90;99.90
21216;DHT22;10765;50.954;5.322;2023-04-25T01:03:33;7.90;99.90
21216;DHT22;10765;50.954;5.322;2023-04-25T01:06:01;7.80;99.90
21216;DHT22;10765;50.954;5.322;2023-04-25T01:08:28;7.80;1.00
21216;DHT22;10765;50.954;5.322;2023-04-25T01:10:55;7.80;1.00
21216;DHT22;10765;50.954;5.322;2023-04-25T01:13:22;7.80;1.00
21216;DHT22;10765;50.954;5.322;2023-04-25T01:15:49;7.70;1.00
21216;DHT22;10765;50.954;5.322;2023-04-25T01:18:19;7.70;1.00
21216;DHT22;10765;50.954;5.322;2023-04-25T01:20:50;7.70;1.00
21216;DHT22;10765;50.954;5.322;2023-04-25T01:23:18;7.80;1.00
21216;DHT22;10765;50.954;5.322;2023-04-25T01:25:47;7.80;1.00
21216;DHT22;10765;50.954;5.322;2023-04-25T01:28:14;7.80;1.00
21216;DHT22;10765;50.954;5.322;2023-04-25T01:30:41;7.80;1.00
21216;DHT22;10765;50.954;5.322;2023-04-25T01:33:09;7.80;1.00
21216;DHT22;10765;50.954;5.322;2023-04-25T01:35:36;8.00;1.00
21216;DHT22;10765;50.954;5.322;2023-04-25T01:38:03;8.10;99.90
21216;DHT22;10765;50.954;5.322;2023-04-25T01:40:31;8.00;99.90
21216;DHT22;10765;50.954;5.322;2023-04-25T01:42:59;7.80;99.90
21216;DHT22;10765;50.954;5.322;2023-04-25T01:45:26;7.90;1.00
21216;DHT22;10765;50.954;5.322;2023-04-25T01:47:53;7.70;1.00
21216;DHT22;10765;50.954;5.322;2023-04-25T01:50:20;7.80;1.00
21216;DHT22;10765;50.954;5.322;2023-04-25T01:52:47;7.90;1.00
21216;DHT22;10765;50.954;5.322;2023-04-25T01:55:14;7.70;1.00
21216;DHT22;10765;50.954;5.322;2023-04-25T01:57:42;7.70;99.90
21216;DHT22;10765;50.954;5.322;2023-04-25T02:00:10;7.70;99.90
21216;DHT22;10765;50.954;5.322;2023-04-25T02:02:37;7.70;99.90
21216;DHT22;10765;50.954;5.322;2023-04-25T02:05:05;7.70;99.90
21216;DHT22;10765;50.954;5.322;2023-04-25T02:07:32;7.80;99.90
21216;DHT22;10765;50.954;5.322;2023-04-25T02:09:59;7.70;59.70
21216;DHT22;10765;50.954;5.322;2023-04-25T02:12:27;7.70;99.90
21216;DHT22;10765;50.954;5.322;2023-04-25T02:14:55;7.70;99.90
21216;DHT22;10765;50.954;5.322;2023-04-25T02:17:22;7.60;99.90
21216;DHT22;10765;50.954;5.322;2023-04-25T02:19:49;7.60;99.90
21216;DHT22;10765;50.954;5.322;2023-04-25T02:22:16;7.60;99.90
21216;DHT22;10765;50.954;5.322;2023-04-25T02:24:43;7.70;99.90
21216;DHT22;10765;50.954;5.322;2023-04-25T02:27:10;7.80;99.90
21216;DHT22;10765;50.954;5.322;2023-04-25T02:29:36;7.80;20.30
21216;DHT22;10765;50.954;5.322;2023-04-25T02:32:05;7.70;99.90
21216;DHT22;10765;50.954;5.322;2023-04-25T02:34:32;7.70;99.90
21216;DHT22;10765;50.954;5.322;2023-04-25T02:36:59;7.80;99.90
21216;DHT22;10765;50.954;5.322;2023-04-25T02:39:25;7.80;68.10
21216;DHT22;10765;50.954;5.322;2023-04-25T02:41:52;7.70;21.10
21216;DHT22;10765;50.954;5.322;2023-04-25T02:44:19;7.50;1.00
21216;DHT22;10765;50.954;5.322;2023-04-25T02:46:46;7.50;1.00
21216;DHT22;10765;50.954;5.322;2023-04-25T02:49:15;7.50;1.00
21216;DHT22;10765;50.954;5.322;2023-04-25T02:51:41;7.50;1.00
21216;DHT22;10765;50.954;5.322;2023-04-25T02:54:08;7.40;1.00
21216;DHT22;10765;50.954;5.322;2023-04-25T02:56:35;7.50;99.90
21216;DHT22;10765;50.954;5.322;2023-04-25T02:59:02;7.50;1.00
21216;DHT22;10765;50.954;5.322;2023-04-25T03:01:29;7.50;99.80
21216;DHT22;10765;50.954;5.322;2023-04-25T03:03:56;7.40;1.00
21216;DHT22;10765;50.954;5.322;2023-04-25T03:06:24;7.30;99.90
21216;DHT22;10765;50.954;5.322;2023-04-25T03:08:51;7.40;1.00
21216;DHT22;10765;50.954;5.322;2023-04-25T03:11:18;7.40;99.90
21216;DHT22;10765;50.954;5.322;2023-04-25T03:13:46;7.60;99.90
21216;DHT22;10765;50.954;5.322;2023-04-25T03:16:13;7.70;1.00
21216;DHT22;10765;50.954;5.322;2023-04-25T03:18:40;7.60;1.00
21216;DHT22;10765;50.954;5.322;2023-04-25T03:21:06;7.50;99.90
21216;DHT22;10765;50.954;5.322;2023-04-25T03:23:35;7.60;99.90
21216;DHT22;10765;50.954;5.322;2023-04-25T03:26:02;7.70;1.00
21216;DHT22;10765;50.954;5.322;2023-04-25T03:28:28;7.70;1.00
21216;DHT22;10765;50.954;5.322;2023-04-25T03:30:55;7.80;1.00
21216;DHT22;10765;50.954;5.322;2023-04-25T03:33:22;7.90;1.00
21216;DHT22;10765;50.954;5.322;2023-04-25T03:35:49;7.90;99.90
21216;DHT22;10765;50.954;5.322;2023-04-25T03:38:17;8.00;99.90
21216;DHT22;10765;50.954;5.322;2023-04-25T03:40:45;7.80;99.90
21216;DHT22;10765;50.954;5.322;2023-04-25T03:43:12;7.60;99.90
21216;DHT22;10765;50.954;5.322;2023-04-25T03:45:38;7.50;1.00
21216;DHT22;10765;50.954;5.322;2023-04-25T03:48:05;7.40;99.90
21216;DHT22;10765;50.954;5.322;2023-04-25T03:50:32;7.40;99.90
21216;DHT22;10765;50.954;5.322;2023-04-25T03:52:59;7.30;1.00
21216;DHT22;10765;50.954;5.322;2023-04-25T03:55:26;7.30;99.90
21216;DHT22;10765;50.954;5.322;2023-04-25T03:57:54;7.30;1.00
21216;DHT22;10765;50.954;5.322;2023-04-25T04:00:23;7.20;3.40
21216;DHT22;10765;50.954;5.322;2023-04-25T04:02:50;7.20;1.00
21216;DHT22;10765;50.954;5.322;2023-04-25T04:05:17;7.20;1.00
21216;DHT22;10765;50.954;5.322;2023-04-25T04:07:44;7.00;1.00
21216;DHT22;10765;50.954;5.322;2023-04-25T04:10:11;6.80;99.90
21216;DHT22;10765;50.954;5.322;2023-04-25T04:12:39;6.60;99.90
21216;DHT22;10765;50.954;5.322;2023-04-25T04:15:08;6.40;1.00
21216;DHT22;10765;50.954;5.322;2023-04-25T04:17:35;6.40;1.00
21216;DHT22;10765;50.954;5.322;2023-04-25T04:20:02;6.30;56.10
21216;DHT22;10765;50.954;5.322;2023-04-25T04:22:29;6.30;1.00
21216;DHT22;10765;50.954;5.322;2023-04-25T04:24:56;6.20;99.90
21216;DHT22;10765;50.954;5.322;2023-04-25T04:27:23;6.30;99.90
21216;DHT22;10765;50.954;5.322;2023-04-25T04:29:50;6.30;99.90
21216;DHT22;10765;50.954;5.322;2023-04-25T04:32:20;6.40;99.90
21216;DHT22;10765;50.954;5.322;2023-04-25T04:34:48;6.30;1.00
21216;DHT22;10765;50.954;5.322;2023-04-25T04:37:15;6.40;1.00
21216;DHT22;10765;50.954;5.322;2023-04-25T04:39:43;6.40;99.90
21216;DHT22;10765;50.954;5.322;2023-04-25T04:42:09;6.30;99.90
21216;DHT22;10765;50.954;5.322;2023-04-25T04:44:37;6.40;1.00
21216;DHT22;10765;50.954;5.322;2023-04-25T04:47:04;6.50;99.90
21216;DHT22;10765;50.954;5.322;2023-04-25T04:49:33;6.60;1.00
21216;DHT22;10765;50.954;5.322;2023-04-25T04:52:00;6.70;99.90
21216;DHT22;10765;50.954;5.322;2023-04-25T04:54:27;6.70;1.00
21216;DHT22;10765;50.954;5.322;2023-04-25T04:56:53;6.80;99.90
21216;DHT22;10765;50.954;5.322;2023-04-25T04:59:20;6.90;1.00
21216;DHT22;10765;50.954;5.322;2023-04-25T05:01:47;6.90;99.90
21216;DHT22;10765;50.954;5.322;2023-04-25T05:04:14;7.00;1.00
21216;DHT22;10765;50.954;5.322;2023-04-25T05:06:42;7.10;1.00
21216;DHT22;10765;50.954;5.322;2023-04-25T05:09:09;7.30;1.00
21216;DHT22;10765;50.954;5.322;2023-04-25T05:11:36;7.50;99.90
21216;DHT22;10765;50.954;5.322;2023-04-25T05:14:03;7.60;99.90
21216;DHT22;10765;50.954;5.322;2023-04-25T05:16:30;7.50;99.90
21216;DHT22;10765;50.954;5.322;2023-04-25T05:18:57;7.60;99.90
21216;DHT22;10765;50.954;5.322;2023-04-25T05:21:24;7.60;99.90
21216;DHT22;10765;50.954;5.322;2023-04-25T05:23:53;7.60;99.90
21216;DHT22;10765;50.954;5.322;2023-04-25T05:26:20;7.60;99.90
21216;DHT22;10765;50.954;5.322;2023-04-25T05:28:47;7.60;86.20
21216;DHT22;10765;50.954;5.322;2023-04-25T05:31:13;7.70;99.90
21216;DHT22;10765;50.954;5.322;2023-04-25T05:33:40;7.70;1.00
21216;DHT22;10765;50.954;5.322;2023-04-25T05:36:08;7.70;1.00
21216;DHT22;10765;50.954;5.322;2023-04-25T05:38:35;7.70;46.80
21216;DHT22;10765;50.954;5.322;2023-04-25T05:41:03;7.70;54.70
21216;DHT22;10765;50.954;5.322;2023-04-25T05:43:30;7.70;99.90
21216;DHT22;10765;50.954;5.322;2023-04-25T05:45:57;7.70;99.90
21216;DHT22;10765;50.954;5.322;2023-04-25T05:48:24;7.70;99.90
21216;DHT22;10765;50.954;5.322;2023-04-25T05:50:51;7.80;99.90
21216;DHT22;10765;50.954;5.322;2023-04-25T05:53:18;7.90;1.00
21216;DHT22;10765;50.954;5.322;2023-04-25T05:55:46;8.00;1.00
21216;DHT22;10765;50.954;5.322;2023-04-25T05:58:14;8.10;1.00
21216;DHT22;10765;50.954;5.322;2023-04-25T06:00:41;8.20;1.00
21216;DHT22;10765;50.954;5.322;2023-04-25T06:03:08;8.20;1.00
21216;DHT22;10765;50.954;5.322;2023-04-25T06:05:36;8.20;1.00
21216;DHT22;10765;50.954;5.322;2023-04-25T06:08:03;8.30;1.00
21216;DHT22;10765;50.954;5.322;2023-04-25T06:10:30;8.20;1.00
21216;DHT22;10765;50.954;5.322;2023-04-25T06:12:57;8.10;1.00
21216;DHT22;10765;50.954;5.322;2023-04-25T06:15:25;8.20;1.00
21216;DHT22;10765;50.954;5.322;2023-04-25T06:17:52;8.30;1.00
21216;DHT22;10765;50.954;5.322;2023-04-25T06:20:19;8.30;1.00
21216;DHT22;10765;50.954;5.322;2023-04-25T06:22:48;8.40;1.00
21216;DHT22;10765;50.954;5.322;2023-04-25T06:25:15;8.50;1.00
21216;DHT22;10765;50.954;5.322;2023-04-25T06:27:42;8.70;1.00
21216;DHT22;10765;50.954;5.322;2023-04-25T06:30:10;8.80;1.00
21216;DHT22;10765;50.954;5.322;2023-04-25T06:32:39;9.00;1.00
21216;DHT22;10765;50.954;5.322;2023-04-25T06:35:06;9.20;99.90
21216;DHT22;10765;50.954;5.322;2023-04-25T06:37:33;9.40;99.90
21216;DHT22;10765;50.954;5.322;2023-04-25T06:40:00;9.20;99.90
21216;DHT22;10765;50.954;5.322;2023-04-25T06:42:28;9.00;99.90
21216;DHT22;10765;50.954;5.322;2023-04-25T06:44:54;8.70;99.90
21216;DHT22;10765;50.954;5.322;2023-04-25T06:47:21;8.70;99.90
21216;DHT22;10765;50.954;5.322;2023-04-25T06:49:50;8.80;99.90
21216;DHT22;10765;50.954;5.322;2023-04-25T06:52:17;9.10;1.00
21216;DHT22;10765;50.954;5.322;2023-04-25T06:54:44;9.30;99.90
21216;DHT22;10765;50.954;5.322;2023-04-25T06:57:11;9.60;99.90
21216;DHT22;10765;50.954;5.322;2023-04-25T06:59:38;9.70;99.90
21216;DHT22;10765;50.954;5.322;2023-04-25T07:02:05;9.70;99.90
21216;DHT22;10765;50.954;5.322;2023-04-25T07:04:32;9.80;99.90
21216;DHT22;10765;50.954;5.322;2023-04-25T07:07:01;9.80;99.90
21216;DHT22;10765;50.954;5.322;2023-04-25T07:09:29;9.60;99.90
21216;DHT22;10765;50.954;5.322;2023-04-25T07:11:59;9.40;99.90
21216;DHT22;10765;50.954;5.322;2023-04-25T07:14:27;9.40;99.90
21216;DHT22;10765;50.954;5.322;2023-04-25T07:16:54;9.40;99.90
21216;DHT22;10765;50.954;5.322;2023-04-25T07:19:21;9.50;99.90
21216;DHT22;10765;50.954;5.322;2023-04-25T07:21:49;9.90;99.90
21216;DHT22;10765;50.954;5.322;2023-04-25T07:24:17;10.10;99.90
21216;DHT22;10765;50.954;5.322;2023-04-25T07:26:44;10.30;95.50
21216;DHT22;10765;50.954;5.322;2023-04-25T07:29:11;10.60;56.30
21216;DHT22;10765;50.954;5.322;2023-04-25T07:31:38;10.80;25.80
21216;DHT22;10765;50.954;5.322;2023-04-25T07:34:05;10.80;2.60
21216;DHT22;10765;50.954;5.322;2023-04-25T07:36:32;10.80;1.00
21216;DHT22;10765;50.954;5.322;2023-04-25T07:38:59;10.60;1.00
21216;DHT22;10765;50.954;5.322;2023-04-25T07:41:27;10.50;1.00
21216;DHT22;10765;50.954;5.322;2023-04-25T07:43:54;10.70;1.00
21216;DHT22;10765;50.954;5.322;2023-04-25T07:46:21;10.90;1.00
21216;DHT22;10765;50.954;5.322;2023-04-25T07:48:48;11.10;1.00
21216;DHT22;10765;50.954;5.322;2023-04-25T07:51:15;11.40;1.00
21216;DHT22;10765;50.954;5.322;2023-04-25T07:53:42;11.30;1.00
21216;DHT22;10765;50.954;5.322;2023-04-25T07:56:09;11.40;1.00
21216;DHT22;10765;50.954;5.322;2023-04-25T07:58:37;11.30;1.00
21216;DHT22;10765;50.954;5.322;2023-04-25T08:01:04;11.00;1.00
21216;DHT22;10765;50.954;5.322;2023-04-25T08:03:31;10.90;1.00
21216;DHT22;10765;50.954;5.322;2023-04-25T08:05:58;10.90;1.00
21216;DHT22;10765;50.954;5.322;2023-04-25T08:08:24;10.80;1.00
21216;DHT22;10765;50.954;5.322;2023-04-25T08:10:51;10.90;1.00
21216;DHT22;10765;50.954;5.322;2023-04-25T08:13:18;11.50;1.00
21216;DHT22;10765;50.954;5.322;2023-04-25T08:15:46;11.40;1.00
21216;DHT22;10765;50.954;5.322;2023-04-25T08:18:13;11.70;1.00
21216;DHT22;10765;50.954;5.322;2023-04-25T08:20:40;11.70;1.00
21216;DHT22;10765;50.954;5.322;2023-04-25T08:23:07;11.80;1.00
21216;DHT22;10765;50.954;5.322;2023-04-25T08:25:36;11.60;1.00
21216;DHT22;10765;50.954;5.322;2023-04-25T08:28:03;11.60;1.00
21216;DHT22;10765;50.954;5.322;2023-04-25T08:30:29;11.40;1.00
21216;DHT22;10765;50.954;5.322;2023-04-25T08:32:58;11.10;1.00
21216;DHT22;10765;50.954;5.322;2023-04-25T08:35:25;11.10;1.00
21216;DHT22;10765;50.954;5.322;2023-04-25T08:37:52;11.10;1.00
21216;DHT22;10765;50.954;5.322;2023-04-25T08:40:19;10.90;1.00
21216;DHT22;10765;50.954;5.322;2023-04-25T08:42:52;10.60;1.00
21216;DHT22;10765;50.954;5.322;2023-04-25T08:45:20;10.60;1.00
21216;DHT22;10765;50.954;5.322;2023-04-25T08:47:47;10.60;1.00
21216;DHT22;10765;50.954;5.322;2023-04-25T08:50:19;10.50;1.00
21216;DHT22;10765;50.954;5.322;2023-04-25T08:52:49;10.20;1.00
21216;DHT22;10765;50.954;5.322;2023-04-25T08:55:19;10.30;1.00
21216;DHT22;10765;50.954;5.322;2023-04-25T08:57:47;10.40;1.00
21216;DHT22;10765;50.954;5.322;2023-04-25T09:00:15;10.50;1.00
21216;DHT22;10765;50.954;5.322;2023-04-25T09:02:42;10.80;1.00
21216;DHT22;10765;50.954;5.322;2023-04-25T09:05:12;10.90;1.00
21216;DHT22;10765;50.954;5.322;2023-04-25T09:07:41;11.10;1.00
21216;DHT22;10765;50.954;5.322;2023-04-25T09:10:08;11.50;1.00
21216;DHT22;10765;50.954;5.322;2023-04-25T09:12:35;11.80;1.00
21216;DHT22;10765;50.954;5.322;2023-04-25T09:15:05;12.00;1.00
21216;DHT22;10765;50.954;5.322;2023-04-25T09:17:32;12.50;1.00
21216;DHT22;10765;50.954;5.322;2023-04-25T09:20:07;13.50;1.00
21216;DHT22;10765;50.954;5.322;2023-04-25T09:22:35;14.00;1.00
21216;DHT22;10765;50.954;5.322;2023-04-25T09:25:07;15.00;1.00
21216;DHT22;10765;50.954;5.322;2023-04-25T09:27:34;15.30;1.00
21216;DHT22;10765;50.954;5.322;2023-04-25T09:30:02;17.90;1.00
21216;DHT22;10765;50.954;5.322;2023-04-25T09:32:29;19.10;1.00
21216;DHT22;10765;50.954;5.322;2023-04-25T09:34:57;16.50;1.00
21216;DHT22;10765;50.954;5.322;2023-04-25T09:37:25;17.00;1.00
21216;DHT22;10765;50.954;5.322;2023-04-25T09:39:54;18.50;1.00
21216;DHT22;10765;50.954;5.322;2023-04-25T09:42:24;19.60;1.00
21216;DHT22;10765;50.954;5.322;2023-04-25T09:44:52;20.90;1.00
21216;DHT22;10765;50.954;5.322;2023-04-25T09:47:20;20.80;1.00
21216;DHT22;10765;50.954;5.322;2023-04-25T09:49:49;22.50;1.00
21216;DHT22;10765;50.954;5.322;2023-04-25T09:52:18;21.00;1.00
21216;DHT22;10765;50.954;5.322;2023-04-25T09:54:47;18.80;1.00
21216;DHT22;10765;50.954;5.322;2023-04-25T09:57:15;20.00;1.00
21216;DHT22;10765;50.954;5.322;2023-04-25T09:59:48;18.60;1.00
21216;DHT22;10765;50.954;5.322;2023-04-25T10:02:16;17.10;1.00
21216;DHT22;10765;50.954;5.322;2023-04-25T10:04:47;16.40;1.00
21216;DHT22;10765;50.954;5.322;2023-04-25T10:07:14;16.80;1.00
21216;DHT22;10765;50.954;5.322;2023-04-25T10:09:41;18.60;1.00
21216;DHT22;10765;50.954;5.322;2023-04-25T10:12:11;18.40;1.00
21216;DHT22;10765;50.954;5.322;2023-04-25T10:14:39;15.90;1.00
21216;DHT22;10765;50.954;5.322;2023-04-25T10:17:10;14.60;1.00
21216;DHT22;10765;50.954;5.322;2023-04-25T10:19:37;14.90;1.00
21216;DHT22;10765;50.954;5.322;2023-04-25T10:22:08;15.20;1.00
21216;DHT22;10765;50.954;5.322;2023-04-25T10:24:35;15.60;1.00
21216;DHT22;10765;50.954;5.322;2023-04-25T10:27:03;14.50;1.00
21216;DHT22;10765;50.954;5.322;2023-04-25T10:29:31;13.60;1.00
21216;DHT22;10765;50.954;5.322;2023-04-25T10:31:58;13.10;1.00
21216;DHT22;10765;50.954;5.322;2023-04-25T10:34:38;12.40;1.00
21216;DHT22;10765;50.954;5.322;2023-04-25T10:37:09;12.40;1.00
21216;DHT22;10765;50.954;5.322;2023-04-25T10:39:38;14.20;1.00
21216;DHT22;10765;50.954;5.322;2023-04-25T10:42:06;15.30;1.00
21216;DHT22;10765;50.954;5.322;2023-04-25T10:44:33;14.20;1.00
21216;DHT22;10765;50.954;5.322;2023-04-25T10:47:01;14.00;1.00
21216;DHT22;10765;50.954;5.322;2023-04-25T10:49:31;16.00;1.00
21216;DHT22;10765;50.954;5.322;2023-04-25T10:52:16;16.70;1.00
21216;DHT22;10765;50.954;5.322;2023-04-25T10:54:46;19.30;1.00
21216;DHT22;10765;50.954;5.322;2023-04-25T10:57:29;19.40;1.00
21216;DHT22;10765;50.954;5.322;2023-04-25T11:00:01;16.70;1.00
21216;DHT22;10765;50.954;5.322;2023-04-25T11:02:31;15.20;1.00
21216;DHT22;10765;50.954;5.322;2023-04-25T11:05:00;14.10;1.00
21216;DHT22;10765;50.954;5.322;2023-04-25T11:07:34;13.40;1.00
21216;DHT22;10765;50.954;5.322;2023-04-25T11:10:05;13.50;1.00
21216;DHT22;10765;50.954;5.322;2023-04-25T11:12:32;13.70;1.00
21216;DHT22;10765;50.954;5.322;2023-04-25T11:15:00;13.90;1.00
21216;DHT22;10765;50.954;5.322;2023-04-25T11:17:28;13.90;1.00
21216;DHT22;10765;50.954;5.322;2023-04-25T11:19:55;14.20;1.00
21216;DHT22;10765;50.954;5.322;2023-04-25T11:22:24;14.90;1.00
21216;DHT22;10765;50.954;5.322;2023-04-25T11:24:50;15.90;1.00
21216;DHT22;10765;50.954;5.322;2023-04-25T11:27:17;17.40;1.00
21216;DHT22;10765;50.954;5.322;2023-04-25T11:29:45;18.70;1.00
21216;DHT22;10765;50.954;5.322;2023-04-25T11:32:14;20.70;1.00
21216;DHT22;10765;50.954;5.322;2023-04-25T11:34:43;21.50;1.00
21216;DHT22;10765;50.954;5.322;2023-04-25T11:37:10;20.70;1.00
21216;DHT22;10765;50.954;5.322;2023-04-25T11:39:43;20.80;1.00
21216;DHT22;10765;50.954;5.322;2023-04-25T11:42:11;25.30;1.00
21216;DHT22;10765;50.954;5.322;2023-04-25T11:44:39;24.00;1.00
21216;DHT22;10765;50.954;5.322;2023-04-25T11:47:06;24.10;1.00
21216;DHT22;10765;50.954;5.322;2023-04-25T11:49:33;25.90;1.00
21216;DHT22;10765;50.954;5.322;2023-04-25T11:52:01;27.20;1.00
21216;DHT22;10765;50.954;5.322;2023-04-25T11:54:28;28.20;1.00
21216;DHT22;10765;50.954;5.322;2023-04-25T11:56:56;28.50;1.00
21216;DHT22;10765;50.954;5.322;2023-04-25T11:59:24;29.30;1.00
21216;DHT22;10765;50.954;5.322;2023-04-25T12:01:52;30.10;1.00
21216;DHT22;10765;50.954;5.322;2023-04-25T12:04:21;30.10;1.00
21216;DHT22;10765;50.954;5.322;2023-04-25T12:06:49;28.50;1.00
21216;DHT22;10765;50.954;5.322;2023-04-25T12:09:17;26.70;1.00
21216;DHT22;10765;50.954;5.322;2023-04-25T12:11:46;22.80;1.00
21216;DHT22;10765;50.954;5.322;2023-04-25T12:14:21;19.40;1.00
21216;DHT22;10765;50.954;5.322;2023-04-25T12:16:50;17.00;1.00
21216;DHT22;10765;50.954;5.322;2023-04-25T12:19:19;15.70;1.00
21216;DHT22;10765;50.954;5.322;2023-04-25T12:21:47;14.70;1.00
21216;DHT22;10765;50.954;5.322;2023-04-25T12:24:15;13.60;1.00
21216;DHT22;10765;50.954;5.322;2023-04-25T12:26:50;12.60;1.00
21216;DHT22;10765;50.954;5.322;2023-04-25T12:29:20;12.10;1.00
21216;DHT22;10765;50.954;5.322;2023-04-25T12:31:48;11.70;1.00
21216;DHT22;10765;50.954;5.322;2023-04-25T12:34:16;11.40;1.00
21216;DHT22;10765;50.954;5.322;2023-04-25T12:36:43;11.10;1.00
21216;DHT22;10765;50.954;5.322;2023-04-25T12:39:15;11.00;1.00
21216;DHT22;10765;50.954;5.322;2023-04-25T12:41:42;11.10;9.20
21216;DHT22;10765;50.954;5.322;2023-04-25T12:44:09;11.20;1.00
21216;DHT22;10765;50.954;5.322;2023-04-25T12:46:37;11.30;1.00
21216;DHT22;10765;50.954;5.322;2023-04-25T12:49:05;11.40;1.00
21216;DHT22;10765;50.954;5.322;2023-04-25T12:51:33;11.70;1.00
21216;DHT22;10765;50.954;5.322;2023-04-25T12:54:00;12.50;1.00
21216;DHT22;10765;50.954;5.322;2023-04-25T12:56:27;13.20;1.00
21216;DHT22;10765;50.954;5.322;2023-04-25T12:58:54;13.90;1.00
21216;DHT22;10765;50.954;5.322;2023-04-25T13:01:21;16.30;1.00
21216;DHT22;10765;50.954;5.322;2023-04-25T13:03:50;19.20;1.00
21216;DHT22;10765;50.954;5.322;2023-04-25T13:06:18;19.30;1.00
21216;DHT22;10765;50.954;5.322;2023-04-25T13:08:45;24.10;1.00
21216;DHT22;10765;50.954;5.322;2023-04-25T13:11:12;27.10;1.00
21216;DHT22;10765;50.954;5.322;2023-04-25T13:13:40;25.90;1.00
21216;DHT22;10765;50.954;5.322;2023-04-25T13:16:07;21.90;1.00
21216;DHT22;10765;50.954;5.322;2023-04-25T13:18:35;18.20;1.00
21216;DHT22;10765;50.954;5.322;2023-04-25T13:21:03;15.70;1.00
21216;DHT22;10765;50.954;5.322;2023-04-25T13:23:30;13.90;1.00
21216;DHT22;10765;50.954;5.322;2023-04-25T13:25:59;13.20;1.00
21216;DHT22;10765;50.954;5.322;2023-04-25T13:28:27;12.70;1.00
21216;DHT22;10765;50.954;5.322;2023-04-25T13:30:54;12.50;1.00
21216;DHT22;10765;50.954;5.322;2023-04-25T13:33:21;12.40;1.00
21216;DHT22;10765;50.954;5.322;2023-04-25T13:35:48;12.30;1.00
21216;DHT22;10765;50.954;5.322;2023-04-25T13:38:21;12.40;1.00
21216;DHT22;10765;50.954;5.322;2023-04-25T13:40:48;13.10;1.00
21216;DHT22;10765;50.954;5.322;2023-04-25T13:43:19;15.40;1.00
21216;DHT22;10765;50.954;5.322;2023-04-25T13:45:46;19.00;1.00
21216;DHT22;10765;50.954;5.322;2023-04-25T13:48:13;20.50;1.00
21216;DHT22;10765;50.954;5.322;2023-04-25T13:50:40;22.50;1.00
21216;DHT22;10765;50.954;5.322;2023-04-25T13:53:07;24.10;1.00
21216;DHT22;10765;50.954;5.322;2023-04-25T13:55:35;20.80;1.00
21216;DHT22;10765;50.954;5.322;2023-04-25T13:58:03;17.80;1.00
21216;DHT22;10765;50.954;5.322;2023-04-25T14:00:34;16.30;1.00
21216;DHT22;10765;50.954;5.322;2023-04-25T14:03:02;14.80;1.00
21216;DHT22;10765;50.954;5.322;2023-04-25T14:05:33;13.90;1.00
21216;DHT22;10765;50.954;5.322;2023-04-25T14:08:04;13.00;1.00
21216;DHT22;10765;50.954;5.322;2023-04-25T14:10:31;12.40;1.00
21216;DHT22;10765;50.954;5.322;2023-04-25T14:12:59;12.00;1.00
21216;DHT22;10765;50.954;5.322;2023-04-25T14:15:29;12.00;1.00
21216;DHT22;10765;50.954;5.322;2023-04-25T14:17:56;11.90;1.00
21216;DHT22;10765;50.954;5.322;2023-04-25T14:20:22;12.00;1.00
21216;DHT22;10765;50.954;5.322;2023-04-25T14:22:50;12.20;1.00
21216;DHT22;10765;50.954;5.322;2023-04-25T14:25:17;13.00;1.00
21216;DHT22;10765;50.954;5.322;2023-04-25T14:27:44;13.70;1.00
21216;DHT22;10765;50.954;5.322;2023-04-25T14:30:16;13.80;1.00
21216;DHT22;10765;50.954;5.322;2023-04-25T14:32:43;13.30;1.00
21216;DHT22;10765;50.954;5.322;2023-04-25T14:35:10;13.10;1.00
21216;DHT22;10765;50.954;5.322;2023-04-25T14:37:37;13.00;1.00
21216;DHT22;10765;50.954;5.322;2023-04-25T14:40:05;12.60;1.00
21216;DHT22;10765;50.954;5.322;2023-04-25T14:42:34;12.30;1.00
21216;DHT22;10765;50.954;5.322;2023-04-25T14:45:01;12.20;1.00
21216;DHT22;10765;50.954;5.322;2023-04-25T14:47:29;12.10;1.00
21216;DHT22;10765;50.954;5.322;2023-04-25T14:49:57;12.40;1.00
21216;DHT22;10765;50.954;5.322;2023-04-25T14:52:24;12.70;1.00
21216;DHT22;10765;50.954;5.322;2023-04-25T14:54:51;12.90;1.00
21216;DHT22;10765;50.954;5.322;2023-04-25T14:57:18;13.00;1.00
21216;DHT22;10765;50.954;5.322;2023-04-25T14:59:45;13.70;1.00
21216;DHT22;10765;50.954;5.322;2023-04-25T15:02:12;13.70;1.00
21216;DHT22;10765;50.954;5.322;2023-04-25T15:04:41;13.40;1.00
21216;DHT22;10765;50.954;5.322;2023-04-25T15:07:07;13.20;1.00
21216;DHT22;10765;50.954;5.322;2023-04-25T15:09:34;13.00;1.00
21216;DHT22;10765;50.954;5.322;2023-04-25T15:12:02;12.60;1.00
21216;DHT22;10765;50.954;5.322;2023-04-25T15:14:29;13.10;1.00
21216;DHT22;10765;50.954;5.322;2023-04-25T15:16:56;13.20;1.00
21216;DHT22;10765;50.954;5.322;2023-04-25T15:19:23;13.10;1.00
21216;DHT22;10765;50.954;5.322;2023-04-25T15:21:51;12.70;1.00
21216;DHT22;10765;50.954;5.322;2023-04-25T15:24:19;12.30;1.00
21216;DHT22;10765;50.954;5.322;2023-04-25T15:26:46;12.20;3.70
21216;DHT22;10765;50.954;5.322;2023-04-25T15:29:13;12.50;1.00
21216;DHT22;10765;50.954;5.322;2023-04-25T15:31:40;12.70;1.00
21216;DHT22;10765;50.954;5.322;2023-04-25T15:34:07;12.70;1.00
21216;DHT22;10765;50.954;5.322;2023-04-25T15:36:34;12.30;2.10
21216;DHT22;10765;50.954;5.322;2023-04-25T15:39:02;12.30;6.80
21216;DHT22;10765;50.954;5.322;2023-04-25T15:41:29;12.30;7.40
21216;DHT22;10765;50.954;5.322;2023-04-25T15:43:58;12.20;11.30
21216;DHT22;10765;50.954;5.322;2023-04-25T15:46:25;12.10;13.40
21216;DHT22;10765;50.954;5.322;2023-04-25T15:48:52;12.00;16.70
21216;DHT22;10765;50.954;5.322;2023-04-25T15:51:19;12.00;17.50
21216;DHT22;10765;50.954;5.322;2023-04-25T15:53:46;11.90;20.80